createdAt,value
2022-07-27T00:04:51.822Z,59.54
2022-07-27T00:16:52.254Z,59.23
2022-07-27T00:28:52.680Z,59.41
2022-07-27T00:40:53.127Z,58.83
2022-07-27T00:52:53.559Z,58.82
2022-07-27T01:04:57.051Z,64.33
2022-07-27T01:16:54.454Z,69.90
2022-07-27T01:28:54.926Z,61.75
2022-07-27T01:40:55.413Z,64.08
2022-07-27T01:52:55.833Z,60.21
2022-07-27T02:04:56.357Z,59.16
2022-07-27T02:16:56.765Z,71.03
2022-07-27T02:28:57.244Z,64.62
2022-07-27T02:40:57.662Z,61.19
2022-07-27T02:52:58.134Z,60.64
2022-07-27T03:04:58.570Z,68.39
2022-07-27T03:16:59.050Z,64.51
2022-07-27T03:28:59.501Z,60.10
2022-07-27T03:40:59.913Z,60.55
2022-07-27T03:53:00.355Z,62.20
2022-07-27T04:05:00.853Z,70.52
2022-07-27T04:17:01.417Z,73.71
2022-07-27T04:29:01.764Z,74.40
2022-07-27T04:41:02.223Z,72.05
2022-07-27T04:53:02.694Z,69.69
2022-07-27T05:05:03.122Z,66.30
2022-07-27T05:17:05.109Z,68.44
2022-07-27T05:29:04.005Z,67.06
2022-07-27T05:41:04.527Z,63.15
2022-07-27T05:53:04.938Z,64.34
2022-07-27T06:05:05.384Z,66.19
2022-07-27T06:17:05.859Z,63.68
2022-07-27T06:29:09.940Z,63.27
2022-07-27T06:41:06.766Z,63.21
2022-07-27T06:53:07.208Z,61.29
2022-07-27T07:05:07.649Z,58.99
2022-07-27T07:17:08.118Z,58.69
2022-07-27T07:29:08.778Z,57.14
2022-07-27T07:41:09.052Z,56.02
2022-07-27T07:53:09.527Z,55.07
2022-07-27T08:05:09.955Z,55.04
2022-07-27T08:17:10.365Z,47.95
2022-07-27T08:29:13.815Z,47.22
2022-07-27T08:41:11.328Z,46.81
2022-07-27T08:53:11.793Z,43.18
2022-07-27T09:05:12.230Z,40.58
2022-07-27T09:17:47.185Z,43.91
2022-07-27T09:29:13.354Z,46.97
2022-07-27T09:41:13.613Z,48.00
2022-07-27T09:53:41.528Z,44.43
2022-07-27T10:05:14.602Z,42.58
2022-07-27T10:17:14.960Z,38.12
2022-07-27T10:29:15.428Z,41.16
2022-07-27T10:41:15.888Z,38.51
2022-07-27T10:53:16.324Z,35.94
2022-07-27T11:17:50.823Z,35.59
2022-07-27T11:29:17.702Z,38.11
2022-07-27T11:41:29.192Z,35.20
2022-07-27T11:53:18.623Z,39.20
2022-07-27T12:05:19.308Z,42.77
2022-07-27T12:17:19.651Z,45.51
2022-07-27T12:29:19.991Z,46.90
2022-07-27T12:41:20.445Z,52.54
2022-07-27T12:53:20.927Z,60.25
2022-07-27T13:09:12.626Z,62.98
2022-07-27T13:21:12.725Z,64.33
2022-07-27T13:33:13.151Z,64.91
2022-07-27T13:45:13.624Z,65.14
2022-07-27T13:57:14.097Z,65.15
2022-07-27T14:09:17.736Z,66.29
2022-07-27T14:21:15.044Z,64.08
2022-07-27T14:33:15.455Z,69.18
2022-07-27T14:45:15.888Z,63.65
2022-07-27T14:57:17.413Z,69.00
2022-07-27T15:09:17.256Z,66.17
2022-07-27T15:21:17.286Z,65.03
2022-07-27T15:33:17.725Z,65.97
2022-07-27T15:45:18.201Z,64.16
2022-07-27T15:57:18.650Z,71.57
2022-07-27T16:09:19.083Z,69.66
2022-07-27T16:21:19.519Z,70.72
2022-07-27T16:33:20.009Z,69.12
2022-07-27T16:45:20.476Z,68.82
2022-07-27T16:57:20.866Z,67.50
2022-07-27T17:09:21.373Z,65.87
2022-07-27T17:21:21.806Z,68.54
2022-07-27T17:33:22.288Z,69.62
2022-07-27T17:45:22.736Z,72.72
2022-07-27T17:57:23.181Z,70.42
2022-07-27T18:09:23.640Z,68.72
2022-07-27T18:21:24.119Z,70.79
2022-07-27T18:33:24.576Z,70.47
2022-07-27T18:45:34.471Z,68.40
2022-07-27T18:57:25.411Z,69.90
2022-07-27T19:09:25.963Z,71.74
2022-07-27T19:21:26.379Z,68.25
2022-07-27T19:33:26.814Z,69.75
2022-07-27T19:45:27.877Z,68.81
2022-07-27T19:57:27.763Z,67.64
2022-07-27T20:09:28.189Z,67.95
2022-07-27T20:21:28.651Z,70.60
2022-07-27T20:33:32.809Z,72.83
2022-07-27T20:45:29.592Z,70.92
2022-07-27T20:57:30.010Z,67.09
2022-07-27T21:09:30.447Z,69.62
2022-07-27T21:21:30.908Z,69.95
2022-07-27T21:33:33.777Z,72.78
2022-07-27T21:45:31.871Z,70.59
2022-07-27T21:57:32.254Z,68.77
2022-07-27T22:09:32.715Z,71.10
2022-07-27T22:21:33.185Z,67.89
2022-07-27T22:33:33.594Z,68.65
2022-07-27T22:45:34.131Z,69.24
2022-07-27T22:57:34.528Z,69.51
2022-07-27T23:09:35.036Z,69.84
2022-07-27T23:21:35.457Z,70.55
2022-07-27T23:33:35.918Z,67.75
2022-07-27T23:45:36.363Z,67.00
2022-07-27T23:57:36.840Z,66.58
